sensor_id;sensor_type;location;lat;lon;timestamp;temperature;humidity
54409;DHT22;40315;48.620;9.828;2023-03-01T00:02:22;-1.20;99.90
54409;DHT22;40315;48.620;9.828;2023-03-01T00:09:45;-1.30;99.90
54409;DHT22;40315;48.620;9.828;2023-03-01T00:12:12;-1.30;99.90
54409;DHT22;40315;48.620;9.828;2023-03-01T00:14:39;-1.30;99.90
54409;DHT22;40315;48.620;9.828;2023-03-01T00:17:06;-1.40;99.90
54409;DHT22;40315;48.620;9.828;2023-03-01T00:19:33;-1.40;99.90
54409;DHT22;40315;48.620;9.828;2023-03-01T00:22:00;-1.50;99.90
54409;DHT22;40315;48.620;9.828;2023-03-01T00:26:56;-1.60;99.90
54409;DHT22;40315;48.620;9.828;2023-03-01T00:29:23;-1.80;99.90
54409;DHT22;40315;48.620;9.828;2023-03-01T00:31:51;-1.70;99.90
54409;DHT22;40315;48.620;9.828;2023-03-01T00:34:18;-1.70;99.90
54409;DHT22;40315;48.620;9.828;2023-03-01T00:36:45;-1.80;99.90
54409;DHT22;40315;48.620;9.828;2023-03-01T00:39:13;-1.80;99.90
54409;DHT22;40315;48.620;9.828;2023-03-01T00:44:10;-1.30;99.90
54409;DHT22;40315;48.620;9.828;2023-03-01T00:46:37;-2.00;99.90
54409;DHT22;40315;48.620;9.828;2023-03-01T00:49:04;-2.00;99.90
54409;DHT22;40315;48.620;9.828;2023-03-01T00:51:31;-1.90;99.90
54409;DHT22;40315;48.620;9.828;2023-03-01T00:54:02;-1.90;99.90
54409;DHT22;40315;48.620;9.828;2023-03-01T00:56:30;-1.90;99.90
54409;DHT22;40315;48.620;9.828;2023-03-01T01:01:27;-1.80;99.90
54409;DHT22;40315;48.620;9.828;2023-03-01T01:03:58;-1.80;99.90
54409;DHT22;40315;48.620;9.828;2023-03-01T01:06:26;-1.70;99.90
54409;DHT22;40315;48.620;9.828;2023-03-01T01:08:54;-1.70;99.90
54409;DHT22;40315;48.620;9.828;2023-03-01T01:11:23;-1.70;99.90
54409;DHT22;40315;48.620;9.828;2023-03-01T01:13:51;-1.70;99.90
54409;DHT22;40315;48.620;9.828;2023-03-01T01:16:22;-1.60;99.90
54409;DHT22;40315;48.620;9.828;2023-03-01T01:18:50;-1.60;99.90
54409;DHT22;40315;48.620;9.828;2023-03-01T01:21:19;-0.70;99.90
54409;DHT22;40315;48.620;9.828;2023-03-01T01:23:46;-1.40;99.90
54409;DHT22;40315;48.620;9.828;2023-03-01T01:26:15;-1.30;99.90
54409;DHT22;40315;48.620;9.828;2023-03-01T01:28:42;-1.40;99.90
54409;DHT22;40315;48.620;9.828;2023-03-01T01:36:06;-1.50;99.90
54409;DHT22;40315;48.620;9.828;2023-03-01T01:38:34;-1.40;99.90
54409;DHT22;40315;48.620;9.828;2023-03-01T01:41:04;-1.30;99.90
54409;DHT22;40315;48.620;9.828;2023-03-01T01:43:33;-1.20;99.90
54409;DHT22;40315;48.620;9.828;2023-03-01T01:49:32;-1.20;99.90
54409;DHT22;40315;48.620;9.828;2023-03-01T01:52:05;-0.70;99.90
54409;DHT22;40315;48.620;9.828;2023-03-01T01:54:40;-1.20;99.90
54409;DHT22;40315;48.620;9.828;2023-03-01T01:57:12;-1.20;99.90
54409;DHT22;40315;48.620;9.828;2023-03-01T01:59:43;-1.10;99.90
54409;DHT22;40315;48.620;9.828;2023-03-01T02:02:12;-0.90;99.90
54409;DHT22;40315;48.620;9.828;2023-03-01T02:04:42;-0.90;99.90
54409;DHT22;40315;48.620;9.828;2023-03-01T02:07:13;-0.90;99.90
54409;DHT22;40315;48.620;9.828;2023-03-01T02:09:42;-0.90;99.90
54409;DHT22;40315;48.620;9.828;2023-03-01T02:12:10;-0.90;99.90
54409;DHT22;40315;48.620;9.828;2023-03-01T02:14:37;-0.90;99.90
54409;DHT22;40315;48.620;9.828;2023-03-01T02:17:04;-0.90;99.90
54409;DHT22;40315;48.620;9.828;2023-03-01T02:19:43;-0.90;99.90
54409;DHT22;40315;48.620;9.828;2023-03-01T02:22:20;-1.00;99.90
54409;DHT22;40315;48.620;9.828;2023-03-01T02:24:57;-1.00;99.90
54409;DHT22;40315;48.620;9.828;2023-03-01T02:27:37;-0.80;99.90
54409;DHT22;40315;48.620;9.828;2023-03-01T02:32:39;-0.80;99.90
54409;DHT22;40315;48.620;9.828;2023-03-01T02:35:09;-0.80;99.90
54409;DHT22;40315;48.620;9.828;2023-03-01T02:37:39;-0.80;99.90
54409;DHT22;40315;48.620;9.828;2023-03-01T02:40:08;-0.80;99.90
54409;DHT22;40315;48.620;9.828;2023-03-01T02:42:45;-0.70;99.90
54409;DHT22;40315;48.620;9.828;2023-03-01T02:45:16;-0.70;99.90
54409;DHT22;40315;48.620;9.828;2023-03-01T02:47:43;-0.70;99.90
54409;DHT22;40315;48.620;9.828;2023-03-01T02:50:18;-0.80;99.90
54409;DHT22;40315;48.620;9.828;2023-03-01T02:52:55;-0.80;99.90
54409;DHT22;40315;48.620;9.828;2023-03-01T02:55:26;-0.80;99.90
54409;DHT22;40315;48.620;9.828;2023-03-01T02:57:55;2.90;99.90
54409;DHT22;40315;48.620;9.828;2023-03-01T03:00:28;-0.60;99.90
54409;DHT22;40315;48.620;9.828;2023-03-01T03:02:57;-0.60;99.90
54409;DHT22;40315;48.620;9.828;2023-03-01T03:05:27;-0.60;99.90
54409;DHT22;40315;48.620;9.828;2023-03-01T03:07:58;-0.70;99.90
54409;DHT22;40315;48.620;9.828;2023-03-01T03:10:29;-0.70;99.90
54409;DHT22;40315;48.620;9.828;2023-03-01T03:12:58;-0.10;99.90
54409;DHT22;40315;48.620;9.828;2023-03-01T03:15:27;0.20;99.90
54409;DHT22;40315;48.620;9.828;2023-03-01T03:17:56;-0.60;99.90
54409;DHT22;40315;48.620;9.828;2023-03-01T03:20:26;-0.60;99.90
54409;DHT22;40315;48.620;9.828;2023-03-01T03:22:57;1.10;99.90
54409;DHT22;40315;48.620;9.828;2023-03-01T03:25:26;-0.70;99.90
54409;DHT22;40315;48.620;9.828;2023-03-01T03:27:54;-0.80;99.90
54409;DHT22;40315;48.620;9.828;2023-03-01T03:30:24;-1.00;99.90
54409;DHT22;40315;48.620;9.828;2023-03-01T03:32:52;-0.90;99.90
54409;DHT22;40315;48.620;9.828;2023-03-01T03:35:21;-0.70;99.90
54409;DHT22;40315;48.620;9.828;2023-03-01T03:37:50;-0.70;99.90
54409;DHT22;40315;48.620;9.828;2023-03-01T03:40:34;0.20;99.90
54409;DHT22;40315;48.620;9.828;2023-03-01T03:43:01;-0.90;99.90
54409;DHT22;40315;48.620;9.828;2023-03-01T03:45:28;-0.90;99.90
54409;DHT22;40315;48.620;9.828;2023-03-01T03:50:24;-0.60;99.90
54409;DHT22;40315;48.620;9.828;2023-03-01T03:52:51;-0.50;99.90
54409;DHT22;40315;48.620;9.828;2023-03-01T03:55:18;-0.30;99.90
54409;DHT22;40315;48.620;9.828;2023-03-01T03:57:47;-0.50;99.90
54409;DHT22;40315;48.620;9.828;2023-03-01T04:00:18;-0.50;99.90
54409;DHT22;40315;48.620;9.828;2023-03-01T04:02:47;-0.50;99.90
54409;DHT22;40315;48.620;9.828;2023-03-01T04:05:17;-0.40;99.90
54409;DHT22;40315;48.620;9.828;2023-03-01T04:07:45;2.90;99.90
54409;DHT22;40315;48.620;9.828;2023-03-01T04:10:14;-0.40;99.90
54409;DHT22;40315;48.620;9.828;2023-03-01T04:12:41;2.30;99.90
54409;DHT22;40315;48.620;9.828;2023-03-01T04:15:11;-0.40;99.90
54409;DHT22;40315;48.620;9.828;2023-03-01T04:17:42;-0.40;99.90
54409;DHT22;40315;48.620;9.828;2023-03-01T04:20:10;-0.40;99.90
54409;DHT22;40315;48.620;9.828;2023-03-01T04:22:40;-0.50;99.90
54409;DHT22;40315;48.620;9.828;2023-03-01T04:25:07;-0.60;99.90
54409;DHT22;40315;48.620;9.828;2023-03-01T04:27:35;-0.50;99.90
54409;DHT22;40315;48.620;9.828;2023-03-01T04:30:03;-0.50;99.90
54409;DHT22;40315;48.620;9.828;2023-03-01T04:32:30;-0.40;99.90
54409;DHT22;40315;48.620;9.828;2023-03-01T04:34:57;-0.40;99.90
54409;DHT22;40315;48.620;9.828;2023-03-01T04:37:25;0.20;99.90
54409;DHT22;40315;48.620;9.828;2023-03-01T04:42:23;-0.30;99.90
54409;DHT22;40315;48.620;9.828;2023-03-01T04:44:50;-0.30;99.90
54409;DHT22;40315;48.620;9.828;2023-03-01T04:47:17;-0.20;99.90
54409;DHT22;40315;48.620;9.828;2023-03-01T04:49:44;-0.20;99.90
54409;DHT22;40315;48.620;9.828;2023-03-01T04:52:11;-0.20;99.90
54409;DHT22;40315;48.620;9.828;2023-03-01T04:54:41;-0.20;99.90
54409;DHT22;40315;48.620;9.828;2023-03-01T04:59:37;-0.20;99.90
54409;DHT22;40315;48.620;9.828;2023-03-01T05:02:04;-0.10;99.90
54409;DHT22;40315;48.620;9.828;2023-03-01T05:06:58;-0.20;99.90
54409;DHT22;40315;48.620;9.828;2023-03-01T05:09:25;-0.10;99.90
54409;DHT22;40315;48.620;9.828;2023-03-01T05:11:52;-0.10;99.90
54409;DHT22;40315;48.620;9.828;2023-03-01T05:14:21;-0.20;99.90
54409;DHT22;40315;48.620;9.828;2023-03-01T05:16:51;-0.30;99.90
54409;DHT22;40315;48.620;9.828;2023-03-01T05:19:18;-0.40;99.90
54409;DHT22;40315;48.620;9.828;2023-03-01T05:21:48;-0.30;99.90
54409;DHT22;40315;48.620;9.828;2023-03-01T05:24:32;-0.30;99.90
54409;DHT22;40315;48.620;9.828;2023-03-01T05:26:59;-0.30;99.90
54409;DHT22;40315;48.620;9.828;2023-03-01T05:29:29;-0.40;99.90
54409;DHT22;40315;48.620;9.828;2023-03-01T05:31:58;-0.40;99.90
54409;DHT22;40315;48.620;9.828;2023-03-01T05:34:28;-0.50;99.90
54409;DHT22;40315;48.620;9.828;2023-03-01T05:36:56;-0.40;99.90
54409;DHT22;40315;48.620;9.828;2023-03-01T05:39:24;-0.30;99.90
54409;DHT22;40315;48.620;9.828;2023-03-01T05:41:53;-0.40;99.90
54409;DHT22;40315;48.620;9.828;2023-03-01T05:44:20;-0.40;99.90
54409;DHT22;40315;48.620;9.828;2023-03-01T05:46:49;0.00;99.90
54409;DHT22;40315;48.620;9.828;2023-03-01T05:49:16;0.20;99.90
54409;DHT22;40315;48.620;9.828;2023-03-01T05:51:47;-0.50;99.90
54409;DHT22;40315;48.620;9.828;2023-03-01T05:54:15;-0.60;99.90
54409;DHT22;40315;48.620;9.828;2023-03-01T05:56:43;-0.60;99.90
54409;DHT22;40315;48.620;9.828;2023-03-01T05:59:11;-0.30;99.90
54409;DHT22;40315;48.620;9.828;2023-03-01T06:01:39;-0.70;99.90
54409;DHT22;40315;48.620;9.828;2023-03-01T06:06:36;-0.80;99.90
54409;DHT22;40315;48.620;9.828;2023-03-01T06:09:03;-0.90;99.90
54409;DHT22;40315;48.620;9.828;2023-03-01T06:11:30;-0.90;99.90
54409;DHT22;40315;48.620;9.828;2023-03-01T06:13:57;-1.00;99.90
54409;DHT22;40315;48.620;9.828;2023-03-01T06:16:24;-1.00;99.90
54409;DHT22;40315;48.620;9.828;2023-03-01T06:18:53;-1.00;99.90
54409;DHT22;40315;48.620;9.828;2023-03-01T06:23:49;-1.00;99.90
54409;DHT22;40315;48.620;9.828;2023-03-01T06:28:44;-1.00;99.90
54409;DHT22;40315;48.620;9.828;2023-03-01T06:31:12;-0.90;99.90
54409;DHT22;40315;48.620;9.828;2023-03-01T06:33:39;-1.20;99.90
54409;DHT22;40315;48.620;9.828;2023-03-01T06:41:04;-1.10;99.90
54409;DHT22;40315;48.620;9.828;2023-03-01T06:43:31;-1.20;99.90
54409;DHT22;40315;48.620;9.828;2023-03-01T06:45:58;-1.20;99.90
54409;DHT22;40315;48.620;9.828;2023-03-01T06:48:25;-1.20;99.90
54409;DHT22;40315;48.620;9.828;2023-03-01T06:50:52;-1.30;99.90
54409;DHT22;40315;48.620;9.828;2023-03-01T06:53:21;-1.30;99.90
54409;DHT22;40315;48.620;9.828;2023-03-01T06:55:54;-1.20;99.90
54409;DHT22;40315;48.620;9.828;2023-03-01T06:58:21;-1.20;99.90
54409;DHT22;40315;48.620;9.828;2023-03-01T07:00:48;-1.20;99.90
54409;DHT22;40315;48.620;9.828;2023-03-01T07:05:48;-1.20;99.90
54409;DHT22;40315;48.620;9.828;2023-03-01T07:08:17;-1.10;99.90
54409;DHT22;40315;48.620;9.828;2023-03-01T07:10:44;-1.10;99.90
54409;DHT22;40315;48.620;9.828;2023-03-01T07:18:12;-0.80;99.90
54409;DHT22;40315;48.620;9.828;2023-03-01T07:20:39;-0.70;99.90
54409;DHT22;40315;48.620;9.828;2023-03-01T07:23:06;-0.70;99.90
54409;DHT22;40315;48.620;9.828;2023-03-01T07:25:33;-0.60;99.90
54409;DHT22;40315;48.620;9.828;2023-03-01T07:28:00;-0.60;99.90
54409;DHT22;40315;48.620;9.828;2023-03-01T07:32:57;-0.60;99.90
54409;DHT22;40315;48.620;9.828;2023-03-01T07:35:25;-0.50;99.90
54409;DHT22;40315;48.620;9.828;2023-03-01T07:37:53;-0.60;99.90
54409;DHT22;40315;48.620;9.828;2023-03-01T07:40:20;-0.50;99.90
54409;DHT22;40315;48.620;9.828;2023-03-01T07:42:47;-0.50;99.90
54409;DHT22;40315;48.620;9.828;2023-03-01T07:45:14;-0.40;99.90
54409;DHT22;40315;48.620;9.828;2023-03-01T07:50:10;-0.50;99.90
54409;DHT22;40315;48.620;9.828;2023-03-01T07:52:39;-2.30;99.90
54409;DHT22;40315;48.620;9.828;2023-03-01T07:55:08;-0.30;99.90
54409;DHT22;40315;48.620;9.828;2023-03-01T07:57:38;-0.30;99.90
54409;DHT22;40315;48.620;9.828;2023-03-01T08:00:06;-0.20;99.90
54409;DHT22;40315;48.620;9.828;2023-03-01T08:02:43;-0.10;99.90
54409;DHT22;40315;48.620;9.828;2023-03-01T08:05:11;1.60;99.90
54409;DHT22;40315;48.620;9.828;2023-03-01T08:07:40;0.10;99.90
54409;DHT22;40315;48.620;9.828;2023-03-01T08:10:08;0.10;99.90
54409;DHT22;40315;48.620;9.828;2023-03-01T08:12:35;0.20;99.90
54409;DHT22;40315;48.620;9.828;2023-03-01T08:15:02;1.90;99.90
54409;DHT22;40315;48.620;9.828;2023-03-01T08:20:03;0.50;99.90
54409;DHT22;40315;48.620;9.828;2023-03-01T08:22:32;0.60;99.90
54409;DHT22;40315;48.620;9.828;2023-03-01T08:24:59;2.30;99.90
54409;DHT22;40315;48.620;9.828;2023-03-01T08:27:25;0.80;99.90
54409;DHT22;40315;48.620;9.828;2023-03-01T08:29:52;2.30;99.90
54409;DHT22;40315;48.620;9.828;2023-03-01T08:32:19;1.00;99.90
54409;DHT22;40315;48.620;9.828;2023-03-01T08:34:49;1.20;99.90
54409;DHT22;40315;48.620;9.828;2023-03-01T08:37:17;1.40;99.90
54409;DHT22;40315;48.620;9.828;2023-03-01T08:39:44;1.50;99.90
54409;DHT22;40315;48.620;9.828;2023-03-01T08:42:11;2.40;99.90
54409;DHT22;40315;48.620;9.828;2023-03-01T08:44:38;1.70;99.90
54409;DHT22;40315;48.620;9.828;2023-03-01T08:47:05;1.60;99.90
54409;DHT22;40315;48.620;9.828;2023-03-01T08:49:32;2.20;99.90
54409;DHT22;40315;48.620;9.828;2023-03-01T08:51:59;1.80;99.90
54409;DHT22;40315;48.620;9.828;2023-03-01T08:54:28;1.70;99.90
54409;DHT22;40315;48.620;9.828;2023-03-01T08:56:55;1.90;99.90
54409;DHT22;40315;48.620;9.828;2023-03-01T08:59:25;2.00;99.90
54409;DHT22;40315;48.620;9.828;2023-03-01T09:01:53;2.30;99.90
54409;DHT22;40315;48.620;9.828;2023-03-01T09:04:19;0.90;99.90
54409;DHT22;40315;48.620;9.828;2023-03-01T09:06:46;2.40;99.90
54409;DHT22;40315;48.620;9.828;2023-03-01T09:09:15;2.30;99.90
54409;DHT22;40315;48.620;9.828;2023-03-01T09:11:44;2.30;99.90
54409;DHT22;40315;48.620;9.828;2023-03-01T09:14:12;2.30;99.90
54409;DHT22;40315;48.620;9.828;2023-03-01T09:16:39;2.40;99.90
54409;DHT22;40315;48.620;9.828;2023-03-01T09:19:06;2.40;99.90
54409;DHT22;40315;48.620;9.828;2023-03-01T09:21:33;2.60;99.90
54409;DHT22;40315;48.620;9.828;2023-03-01T09:24:01;2.50;99.90
54409;DHT22;40315;48.620;9.828;2023-03-01T09:26:28;3.10;99.90
54409;DHT22;40315;48.620;9.828;2023-03-01T09:31:24;2.70;99.90
54409;DHT22;40315;48.620;9.828;2023-03-01T09:33:52;2.80;99.90
54409;DHT22;40315;48.620;9.828;2023-03-01T09:36:23;2.90;99.90
54409;DHT22;40315;48.620;9.828;2023-03-01T09:38:52;2.70;99.90
54409;DHT22;40315;48.620;9.828;2023-03-01T09:41:36;4.10;99.90
54409;DHT22;40315;48.620;9.828;2023-03-01T09:44:12;2.90;99.90
54409;DHT22;40315;48.620;9.828;2023-03-01T09:46:43;2.90;99.90
54409;DHT22;40315;48.620;9.828;2023-03-01T09:49:15;3.00;99.90
54409;DHT22;40315;48.620;9.828;2023-03-01T09:51:53;3.20;99.90
54409;DHT22;40315;48.620;9.828;2023-03-01T09:54:22;3.30;99.90
54409;DHT22;40315;48.620;9.828;2023-03-01T09:56:59;3.40;99.90
54409;DHT22;40315;48.620;9.828;2023-03-01T09:59:33;3.30;99.90
54409;DHT22;40315;48.620;9.828;2023-03-01T10:02:21;3.30;99.90
54409;DHT22;40315;48.620;9.828;2023-03-01T10:04:50;3.50;99.90
54409;DHT22;40315;48.620;9.828;2023-03-01T10:07:27;3.60;99.90
54409;DHT22;40315;48.620;9.828;2023-03-01T10:09:54;4.50;99.90
54409;DHT22;40315;48.620;9.828;2023-03-01T10:12:25;3.90;99.90
54409;DHT22;40315;48.620;9.828;2023-03-01T10:14:59;3.90;99.90
54409;DHT22;40315;48.620;9.828;2023-03-01T10:17:34;4.10;99.90
54409;DHT22;40315;48.620;9.828;2023-03-01T10:20:19;4.70;99.90
54409;DHT22;40315;48.620;9.828;2023-03-01T10:22:47;4.40;99.90
54409;DHT22;40315;48.620;9.828;2023-03-01T10:25:23;4.40;99.90
54409;DHT22;40315;48.620;9.828;2023-03-01T10:27:52;4.40;99.90
54409;DHT22;40315;48.620;9.828;2023-03-01T10:30:32;4.40;99.90
54409;DHT22;40315;48.620;9.828;2023-03-01T10:33:03;4.30;99.90
54409;DHT22;40315;48.620;9.828;2023-03-01T10:35:33;4.30;99.90
54409;DHT22;40315;48.620;9.828;2023-03-01T10:38:05;4.40;99.90
54409;DHT22;40315;48.620;9.828;2023-03-01T10:40:34;4.50;99.90
54409;DHT22;40315;48.620;9.828;2023-03-01T10:43:04;4.50;99.90
54409;DHT22;40315;48.620;9.828;2023-03-01T10:45:35;4.50;99.90
54409;DHT22;40315;48.620;9.828;2023-03-01T10:48:11;4.40;99.90
54409;DHT22;40315;48.620;9.828;2023-03-01T10:50:40;4.50;99.90
54409;DHT22;40315;48.620;9.828;2023-03-01T10:53:21;4.60;99.90
54409;DHT22;40315;48.620;9.828;2023-03-01T10:55:57;5.10;99.90
54409;DHT22;40315;48.620;9.828;2023-03-01T11:00:55;5.10;99.90
54409;DHT22;40315;48.620;9.828;2023-03-01T11:03:26;5.20;99.90
54409;DHT22;40315;48.620;9.828;2023-03-01T11:05:57;5.20;99.90
54409;DHT22;40315;48.620;9.828;2023-03-01T11:08:32;5.40;99.90
54409;DHT22;40315;48.620;9.828;2023-03-01T11:11:20;5.30;99.90
54409;DHT22;40315;48.620;9.828;2023-03-01T11:13:54;5.40;99.90
54409;DHT22;40315;48.620;9.828;2023-03-01T11:16:32;5.70;99.90
54409;DHT22;40315;48.620;9.828;2023-03-01T11:19:14;5.70;99.90
54409;DHT22;40315;48.620;9.828;2023-03-01T11:21:47;7.30;99.90
54409;DHT22;40315;48.620;9.828;2023-03-01T11:24:24;6.20;99.90
54409;DHT22;40315;48.620;9.828;2023-03-01T11:26:54;6.30;99.90
54409;DHT22;40315;48.620;9.828;2023-03-01T11:29:27;6.10;99.90
54409;DHT22;40315;48.620;9.828;2023-03-01T11:32:00;6.10;99.90
54409;DHT22;40315;48.620;9.828;2023-03-01T11:34:38;6.10;99.90
54409;DHT22;40315;48.620;9.828;2023-03-01T11:37:15;6.00;99.90
54409;DHT22;40315;48.620;9.828;2023-03-01T11:39:47;6.20;99.90
54409;DHT22;40315;48.620;9.828;2023-03-01T11:42:20;6.30;99.90
54409;DHT22;40315;48.620;9.828;2023-03-01T11:44:52;6.50;99.90
54409;DHT22;40315;48.620;9.828;2023-03-01T11:47:31;6.50;99.90
54409;DHT22;40315;48.620;9.828;2023-03-01T11:50:15;6.70;99.90
54409;DHT22;40315;48.620;9.828;2023-03-01T11:53:06;6.80;99.90
54409;DHT22;40315;48.620;9.828;2023-03-01T11:55:54;6.80;99.90
54409;DHT22;40315;48.620;9.828;2023-03-01T11:58:40;7.00;99.90
54409;DHT22;40315;48.620;9.828;2023-03-01T12:01:19;7.30;99.90
54409;DHT22;40315;48.620;9.828;2023-03-01T12:04:06;7.40;99.90
54409;DHT22;40315;48.620;9.828;2023-03-01T12:06:44;7.20;99.90
54409;DHT22;40315;48.620;9.828;2023-03-01T12:12:31;7.40;99.90
54409;DHT22;40315;48.620;9.828;2023-03-01T12:21:14;7.70;99.90
54409;DHT22;40315;48.620;9.828;2023-03-01T12:24:06;7.70;99.90
54409;DHT22;40315;48.620;9.828;2023-03-01T12:26:42;7.80;99.90
54409;DHT22;40315;48.620;9.828;2023-03-01T12:29:23;8.10;99.90
54409;DHT22;40315;48.620;9.828;2023-03-01T12:35:13;8.30;99.90
54409;DHT22;40315;48.620;9.828;2023-03-01T12:37:54;8.60;99.90
54409;DHT22;40315;48.620;9.828;2023-03-01T12:40:33;9.30;99.90
54409;DHT22;40315;48.620;9.828;2023-03-01T12:43:17;8.80;99.90
54409;DHT22;40315;48.620;9.828;2023-03-01T12:45:54;8.60;99.90
54409;DHT22;40315;48.620;9.828;2023-03-01T12:48:36;8.50;99.90
54409;DHT22;40315;48.620;9.828;2023-03-01T12:51:13;8.70;99.90
54409;DHT22;40315;48.620;9.828;2023-03-01T12:53:47;8.90;99.90
54409;DHT22;40315;48.620;9.828;2023-03-01T12:56:17;8.90;99.90
54409;DHT22;40315;48.620;9.828;2023-03-01T12:58:51;9.20;99.90
54409;DHT22;40315;48.620;9.828;2023-03-01T13:01:26;9.10;99.90
54409;DHT22;40315;48.620;9.828;2023-03-01T13:04:11;9.00;99.90
54409;DHT22;40315;48.620;9.828;2023-03-01T13:06:44;9.00;99.90
54409;DHT22;40315;48.620;9.828;2023-03-01T13:09:22;9.00;99.90
54409;DHT22;40315;48.620;9.828;2023-03-01T13:11:51;8.90;99.90
54409;DHT22;40315;48.620;9.828;2023-03-01T13:14:36;8.90;99.90
54409;DHT22;40315;48.620;9.828;2023-03-01T13:17:32;9.10;99.90
54409;DHT22;40315;48.620;9.828;2023-03-01T13:19:59;9.30;99.90
54409;DHT22;40315;48.620;9.828;2023-03-01T13:22:29;9.40;99.90
54409;DHT22;40315;48.620;9.828;2023-03-01T13:25:15;9.40;99.90
54409;DHT22;40315;48.620;9.828;2023-03-01T13:27:43;9.60;99.90
54409;DHT22;40315;48.620;9.828;2023-03-01T13:30:39;9.40;99.90
54409;DHT22;40315;48.620;9.828;2023-03-01T13:36:45;9.00;99.90
54409;DHT22;40315;48.620;9.828;2023-03-01T13:39:28;9.00;99.90
54409;DHT22;40315;48.620;9.828;2023-03-01T13:41:59;9.00;99.90
54409;DHT22;40315;48.620;9.828;2023-03-01T13:44:30;9.20;99.90
54409;DHT22;40315;48.620;9.828;2023-03-01T13:47:14;9.20;99.90
54409;DHT22;40315;48.620;9.828;2023-03-01T13:49:48;8.90;99.90
54409;DHT22;40315;48.620;9.828;2023-03-01T13:52:38;8.80;99.90
54409;DHT22;40315;48.620;9.828;2023-03-01T13:55:16;8.90;99.90
54409;DHT22;40315;48.620;9.828;2023-03-01T13:57:47;9.00;99.90
54409;DHT22;40315;48.620;9.828;2023-03-01T14:00:31;8.90;99.90
54409;DHT22;40315;48.620;9.828;2023-03-01T14:03:20;8.90;99.90
54409;DHT22;40315;48.620;9.828;2023-03-01T14:06:02;8.90;99.90
54409;DHT22;40315;48.620;9.828;2023-03-01T14:08:34;8.90;99.90
54409;DHT22;40315;48.620;9.828;2023-03-01T14:11:22;9.10;99.90
54409;DHT22;40315;48.620;9.828;2023-03-01T14:14:09;9.10;99.90
54409;DHT22;40315;48.620;9.828;2023-03-01T14:16:48;9.00;99.90
54409;DHT22;40315;48.620;9.828;2023-03-01T14:19:18;9.00;99.90
54409;DHT22;40315;48.620;9.828;2023-03-01T14:21:45;9.10;99.90
54409;DHT22;40315;48.620;9.828;2023-03-01T14:24:21;9.30;99.90
54409;DHT22;40315;48.620;9.828;2023-03-01T14:26:49;9.00;99.90
54409;DHT22;40315;48.620;9.828;2023-03-01T14:29:26;9.00;99.90
54409;DHT22;40315;48.620;9.828;2023-03-01T14:31:53;9.10;99.90
54409;DHT22;40315;48.620;9.828;2023-03-01T14:34:24;9.00;99.90
54409;DHT22;40315;48.620;9.828;2023-03-01T14:36:51;8.90;99.90
54409;DHT22;40315;48.620;9.828;2023-03-01T14:39:23;8.80;99.90
54409;DHT22;40315;48.620;9.828;2023-03-01T14:41:51;8.80;99.90
54409;DHT22;40315;48.620;9.828;2023-03-01T14:44:22;8.90;99.90
54409;DHT22;40315;48.620;9.828;2023-03-01T14:46:55;8.80;99.90
54409;DHT22;40315;48.620;9.828;2023-03-01T14:49:28;8.80;99.90
54409;DHT22;40315;48.620;9.828;2023-03-01T14:51:59;8.70;99.90
54409;DHT22;40315;48.620;9.828;2023-03-01T14:54:29;8.90;99.90
54409;DHT22;40315;48.620;9.828;2023-03-01T14:57:00;9.00;99.90
54409;DHT22;40315;48.620;9.828;2023-03-01T14:59:28;8.90;99.90
54409;DHT22;40315;48.620;9.828;2023-03-01T15:01:58;8.70;99.90
54409;DHT22;40315;48.620;9.828;2023-03-01T15:04:27;8.70;99.90
54409;DHT22;40315;48.620;9.828;2023-03-01T15:06:55;8.70;99.90
54409;DHT22;40315;48.620;9.828;2023-03-01T15:09:32;8.70;99.90
54409;DHT22;40315;48.620;9.828;2023-03-01T15:12:14;10.40;99.90
54409;DHT22;40315;48.620;9.828;2023-03-01T15:14:51;8.90;99.90
54409;DHT22;40315;48.620;9.828;2023-03-01T15:17:28;8.80;99.90
54409;DHT22;40315;48.620;9.828;2023-03-01T15:19:59;8.80;99.90
54409;DHT22;40315;48.620;9.828;2023-03-01T15:22:27;8.60;99.90
54409;DHT22;40315;48.620;9.828;2023-03-01T15:24:55;8.70;99.90
54409;DHT22;40315;48.620;9.828;2023-03-01T15:27:25;8.50;99.90
54409;DHT22;40315;48.620;9.828;2023-03-01T15:29:55;9.00;99.90
54409;DHT22;40315;48.620;9.828;2023-03-01T15:32:28;8.40;99.90
54409;DHT22;40315;48.620;9.828;2023-03-01T15:34:56;8.50;99.90
54409;DHT22;40315;48.620;9.828;2023-03-01T15:37:40;8.40;99.90
54409;DHT22;40315;48.620;9.828;2023-03-01T15:40:21;8.30;99.90
54409;DHT22;40315;48.620;9.828;2023-03-01T15:42:50;8.40;99.90
54409;DHT22;40315;48.620;9.828;2023-03-01T15:45:23;8.20;99.90
54409;DHT22;40315;48.620;9.828;2023-03-01T15:47:55;8.20;99.90
54409;DHT22;40315;48.620;9.828;2023-03-01T15:50:25;8.00;99.90
54409;DHT22;40315;48.620;9.828;2023-03-01T15:52:53;7.80;99.90
54409;DHT22;40315;48.620;9.828;2023-03-01T15:55:22;7.80;99.90
54409;DHT22;40315;48.620;9.828;2023-03-01T15:57:50;7.90;99.90
54409;DHT22;40315;48.620;9.828;2023-03-01T16:00:24;7.70;99.90
54409;DHT22;40315;48.620;9.828;2023-03-01T16:02:51;7.70;99.90
54409;DHT22;40315;48.620;9.828;2023-03-01T16:05:23;7.70;99.90
54409;DHT22;40315;48.620;9.828;2023-03-01T16:07:50;7.60;99.90
54409;DHT22;40315;48.620;9.828;2023-03-01T16:10:18;7.60;99.90
54409;DHT22;40315;48.620;9.828;2023-03-01T16:12:45;7.60;99.90
54409;DHT22;40315;48.620;9.828;2023-03-01T16:15:16;8.20;99.90
54409;DHT22;40315;48.620;9.828;2023-03-01T16:17:44;7.60;99.90
54409;DHT22;40315;48.620;9.828;2023-03-01T16:20:15;7.40;99.90
54409;DHT22;40315;48.620;9.828;2023-03-01T16:22:43;7.30;99.90
54409;DHT22;40315;48.620;9.828;2023-03-01T16:25:12;7.10;99.90
54409;DHT22;40315;48.620;9.828;2023-03-01T16:27:42;7.10;99.90
54409;DHT22;40315;48.620;9.828;2023-03-01T16:30:14;6.90;99.90
54409;DHT22;40315;48.620;9.828;2023-03-01T16:32:44;6.90;99.90
54409;DHT22;40315;48.620;9.828;2023-03-01T16:35:13;6.80;99.90
54409;DHT22;40315;48.620;9.828;2023-03-01T16:37:40;6.70;99.90
54409;DHT22;40315;48.620;9.828;2023-03-01T16:40:16;6.60;99.90
54409;DHT22;40315;48.620;9.828;2023-03-01T16:42:44;6.40;99.90
54409;DHT22;40315;48.620;9.828;2023-03-01T16:45:11;6.30;99.90
54409;DHT22;40315;48.620;9.828;2023-03-01T16:47:38;6.40;99.90
54409;DHT22;40315;48.620;9.828;2023-03-01T16:50:06;6.30;99.90
54409;DHT22;40315;48.620;9.828;2023-03-01T16:52:33;6.30;99.90
54409;DHT22;40315;48.620;9.828;2023-03-01T16:55:02;6.10;99.90
54409;DHT22;40315;48.620;9.828;2023-03-01T16:57:33;6.00;99.90
54409;DHT22;40315;48.620;9.828;2023-03-01T17:00:00;5.90;99.90
54409;DHT22;40315;48.620;9.828;2023-03-01T17:02:33;5.80;99.90
54409;DHT22;40315;48.620;9.828;2023-03-01T17:05:01;5.80;99.90
54409;DHT22;40315;48.620;9.828;2023-03-01T17:07:32;5.70;99.90
54409;DHT22;40315;48.620;9.828;2023-03-01T17:10:00;5.70;99.90
54409;DHT22;40315;48.620;9.828;2023-03-01T17:12:31;5.70;99.90
54409;DHT22;40315;48.620;9.828;2023-03-01T17:14:59;5.70;99.90
54409;DHT22;40315;48.620;9.828;2023-03-01T17:17:27;6.60;99.90
54409;DHT22;40315;48.620;9.828;2023-03-01T17:19:56;5.40;99.90
54409;DHT22;40315;48.620;9.828;2023-03-01T17:22:24;5.40;99.90
54409;DHT22;40315;48.620;9.828;2023-03-01T17:24:51;5.20;99.90
54409;DHT22;40315;48.620;9.828;2023-03-01T17:27:18;5.10;99.90